Time,TemperatureF,DewpointF,PressureIn,WindDirection,WindDirectionDegrees,WindSpeedMPH,WindSpeedGustMPH,Humidity,HourlyPrecipIn,Conditions,Clouds,dailyrainin,SolarRadiationWatts/m^2,SoftwareType,DateUTC
2013-06-06 00:02:00,84.0,8.0,30.01,WNW,300,20.0,30.0,5,-99.99,,,-99.99,0.000000,,2013-06-06 06:02:00,
2013-06-06 00:12:00,83.0,7.0,30.01,WNW,301,17.0,25.0,5,-99.99,,,-99.99,0.000000,,2013-06-06 06:12:00,
2013-06-06 00:22:00,83.0,7.0,30.01,NW,307,16.0,24.0,5,-99.99,,,-99.99,0.000000,,2013-06-06 06:22:00,
2013-06-06 00:32:00,82.0,8.0,30.01,NW,310,14.0,23.0,5,-99.99,,,-99.99,0.000000,,2013-06-06 06:32:00,
2013-06-06 00:42:00,82.0,8.0,30.01,NW,310,14.0,23.0,5,-99.99,,,-99.99,0.000000,,2013-06-06 06:42:00,
2013-06-06 00:52:00,82.0,8.0,30.01,NW,305,16.0,25.0,5,-99.99,,,-99.99,0.000000,,2013-06-06 06:52:00,
2013-06-06 01:02:00,82.0,8.0,30.01,NW,305,16.0,25.0,5,-99.99,,,-99.99,0.000000,,2013-06-06 07:02:00,
2013-06-06 01:12:00,82.0,9.0,30.01,NW,304,17.0,24.0,6,-99.99,,,-99.99,0.000000,,2013-06-06 07:12:00,
2013-06-06 01:22:00,82.0,9.0,30.01,WNW,300,18.0,25.0,6,-99.99,,,-99.99,0.000000,,2013-06-06 07:22:00,
2013-06-06 01:32:00,82.0,9.0,30.01,WNW,300,18.0,25.0,6,-99.99,,,-99.99,0.000000,,2013-06-06 07:32:00,
2013-06-06 01:42:00,82.0,10.0,30.01,WNW,300,17.0,25.0,6,-99.99,,,-99.99,0.000000,,2013-06-06 07:42:00,
2013-06-06 01:52:00,81.0,11.0,30.02,WNW,297,13.0,20.0,6,-99.99,,,-99.99,0.000000,,2013-06-06 07:52:00,
2013-06-06 02:02:00,81.0,11.0,30.02,WNW,297,13.0,20.0,6,-99.99,,,-99.99,0.000000,,2013-06-06 08:02:00,
2013-06-06 02:12:00,75.0,19.0,30.05,South,178,7.0,13.0,11,-99.99,,,-99.99,0.000000,,2013-06-06 08:12:00,
2013-06-06 02:22:00,71.0,29.0,30.06,SSW,204,5.0,8.0,20,-99.99,,,-99.99,0.000000,,2013-06-06 08:22:00,
2013-06-06 02:32:00,70.0,29.0,30.06,West,276,6.0,11.0,21,-99.99,,,-99.99,0.000000,,2013-06-06 08:32:00,
2013-06-06 02:52:00,72.0,32.0,30.05,West,278,3.0,7.0,22,-99.99,,,-99.99,0.000000,,2013-06-06 08:52:00,
2013-06-06 03:02:00,72.0,32.0,30.05,West,278,3.0,7.0,22,-99.99,,,-99.99,0.000000,,2013-06-06 09:02:00,
2013-06-06 03:12:00,72.0,34.0,30.05,WNW,303,4.0,11.0,24,-99.99,,,-99.99,0.000000,,2013-06-06 09:12:00,
2013-06-06 03:22:00,72.0,34.0,30.05,North,3,2.0,6.0,25,-99.99,,,-99.99,0.000000,,2013-06-06 09:22:00,
2013-06-06 03:33:00,72.0,34.0,30.05,North,3,2.0,6.0,25,-99.99,,,-99.99,0.000000,,2013-06-06 09:33:00,
2013-06-06 03:43:00,71.0,33.0,30.05,NNW,334,4.0,8.0,24,-99.99,,,-99.99,0.000000,,2013-06-06 09:43:00,
2013-06-06 03:53:00,71.0,33.0,30.05,NNW,334,4.0,8.0,24,-99.99,,,-99.99,0.000000,,2013-06-06 09:53:00,
2013-06-06 04:03:00,71.0,33.0,30.05,NNW,334,4.0,8.0,24,-99.99,,,-99.99,0.000000,,2013-06-06 10:03:00,
2013-06-06 04:12:00,70.0,36.0,30.06,WNW,300,2.0,7.0,28,-99.99,,,-99.99,0.000000,,2013-06-06 10:12:00,
2013-06-06 04:23:00,68.0,34.0,30.06,NW,313,4.0,7.0,28,-99.99,,,-99.99,0.000000,,2013-06-06 10:23:00,
2013-06-06 04:33:00,68.0,38.0,30.06,WNW,298,3.0,5.0,32,-99.99,,,-99.99,0.000000,,2013-06-06 10:33:00,
2013-06-06 04:42:00,68.0,38.0,-100.00,WNW,298,3.0,5.0,32,-99.99,,,-99.99,0.000000,,2013-06-06 10:42:00,
2013-06-06 04:53:00,69.0,39.0,30.06,NNE,25,4.0,7.0,33,-99.99,,,-99.99,0.000000,,2013-06-06 10:53:00,
2013-06-06 05:02:00,69.0,39.0,30.06,NNE,25,4.0,7.0,33,-99.99,,,-99.99,0.000000,,2013-06-06 11:02:00,
2013-06-06 05:12:00,69.0,40.0,30.06,NE,51,3.0,6.0,34,-99.99,,,-99.99,0.000000,,2013-06-06 11:12:00,
2013-06-06 05:22:00,68.0,41.0,30.07,ENE,76,3.0,6.0,37,-99.99,,,-99.99,0.000000,,2013-06-06 11:22:00,
2013-06-06 05:32:00,68.0,41.0,30.07,ENE,76,3.0,6.0,37,-99.99,,,-99.99,0.000000,,2013-06-06 11:32:00,
2013-06-06 05:42:00,67.0,42.0,30.07,ENE,63,3.0,5.0,39,-99.99,,,-99.99,0.000000,,2013-06-06 11:42:00,
2013-06-06 05:52:00,66.0,42.0,30.07,NE,49,4.0,7.0,41,-99.99,,,-99.99,0.000000,,2013-06-06 11:52:00,
2013-06-06 06:02:00,66.0,42.0,30.07,NE,49,4.0,7.0,41,-99.99,,,-99.99,0.000000,,2013-06-06 12:02:00,
2013-06-06 06:12:00,66.0,43.0,30.08,ENE,76,4.0,7.0,43,-99.99,,,-99.99,0.000000,,2013-06-06 12:12:00,
2013-06-06 06:23:00,65.0,43.0,30.09,NNE,32,3.0,5.0,44,-99.99,,,-99.99,1.390000,,2013-06-06 12:23:00,
2013-06-06 06:33:00,65.0,43.0,30.09,NNE,32,3.0,5.0,44,-99.99,,,-99.99,1.390000,,2013-06-06 12:33:00,
2013-06-06 06:42:00,65.0,43.0,30.10,NW,308,2.0,5.0,45,-99.99,,,-99.99,6.280000,,2013-06-06 12:42:00,
2013-06-06 06:53:00,64.0,43.0,30.10,NW,310,5.0,8.0,45,-99.99,,,-99.99,17.430000,,2013-06-06 12:53:00,
2013-06-06 07:03:00,64.0,43.0,30.10,NW,310,5.0,8.0,45,-99.99,,,-99.99,17.430000,,2013-06-06 13:03:00,
2013-06-06 07:13:00,66.0,43.0,30.10,NW,305,4.0,6.0,44,-99.99,,,-99.99,31.379999,,2013-06-06 13:13:00,
2013-06-06 07:22:00,68.0,43.0,30.10,South,177,2.0,6.0,40,-99.99,,,-99.99,46.720001,,2013-06-06 13:22:00,
2013-06-06 07:32:00,68.0,43.0,30.10,South,177,2.0,6.0,40,-99.99,,,-99.99,46.720001,,2013-06-06 13:32:00,
2013-06-06 07:43:00,70.0,43.0,30.10,South,174,5.0,13.0,37,-99.99,,,-99.99,76.010002,,2013-06-06 13:43:00,
2013-06-06 07:53:00,70.0,43.0,30.10,South,174,5.0,13.0,37,-99.99,,,-99.99,76.010002,,2013-06-06 13:53:00,
2013-06-06 08:03:00,70.0,43.0,-100.00,South,174,5.0,13.0,37,-99.99,,,-99.99,76.010002,,2013-06-06 14:03:00,
2013-06-06 08:13:00,70.0,42.0,30.11,SSE,168,6.0,11.0,35,-99.99,,,-99.99,67.639999,,2013-06-06 14:13:00,
2013-06-06 08:22:00,71.0,42.0,30.12,SSE,153,6.0,11.0,35,-99.99,,,-99.99,118.550003,,2013-06-06 14:22:00,
2013-06-06 08:33:00,71.0,41.0,30.13,SSE,163,9.0,17.0,34,-99.99,,,-99.99,306.130005,,2013-06-06 14:33:00,
2013-06-06 08:43:00,71.0,41.0,-100.00,SSE,163,9.0,17.0,34,-99.99,,,-99.99,306.130005,,2013-06-06 14:43:00,
2013-06-06 08:53:00,71.0,41.0,-100.00,SSE,163,9.0,17.0,34,-99.99,,,-99.99,306.130005,,2013-06-06 14:53:00,
2013-06-06 09:00:00,72.0,41.0,-100.00,South,180,7.0,13.0,32,-99.99,,,-99.99,470.700012,,2013-06-06 15:00:00,
2013-06-06 09:03:00,71.0,41.0,-100.00,SSE,163,9.0,17.0,34,-99.99,,,-99.99,306.130005,,2013-06-06 15:03:00,
2013-06-06 09:13:00,71.0,41.0,30.13,South,171,7.0,12.0,33,-99.99,,,-99.99,421.190002,,2013-06-06 15:13:00,
2013-06-06 09:23:00,72.0,41.0,30.13,South,180,7.0,13.0,32,-99.99,,,-99.99,470.700012,,2013-06-06 15:23:00,
2013-06-06 09:33:00,72.0,41.0,30.13,South,180,7.0,13.0,32,-99.99,,,-99.99,470.700012,,2013-06-06 15:33:00,
2013-06-06 09:43:00,72.0,41.0,-100.00,South,180,7.0,13.0,32,-99.99,,,-99.99,470.700012,,2013-06-06 15:43:00,
2013-06-06 09:53:00,72.0,41.0,-100.00,South,180,7.0,13.0,32,-99.99,,,-99.99,470.700012,,2013-06-06 15:53:00,
2013-06-06 10:12:00,73.0,41.0,30.13,SE,143,7.0,14.0,30,-99.99,,,-99.99,608.770020,,2013-06-06 16:12:00,
2013-06-06 10:23:00,74.0,40.0,30.13,SSE,154,8.0,15.0,30,-99.99,,,-99.99,649.909973,,2013-06-06 16:23:00,
2013-06-06 10:33:00,74.0,40.0,30.13,SSE,149,7.0,14.0,29,-99.99,,,-99.99,685.479980,,2013-06-06 16:33:00,
2013-06-06 10:43:00,74.0,40.0,30.13,SSE,149,7.0,14.0,29,-99.99,,,-99.99,685.479980,,2013-06-06 16:43:00,
2013-06-06 10:53:00,74.0,40.0,30.13,SSE,149,7.0,14.0,29,-99.99,,,-99.99,685.479980,,2013-06-06 16:53:00,
2013-06-06 11:03:00,74.0,40.0,30.13,SSE,149,7.0,14.0,29,-99.99,,,-99.99,685.479980,,2013-06-06 17:03:00,
2013-06-06 11:13:00,75.0,40.0,30.13,SSE,149,8.0,17.0,28,-99.99,,,-99.99,758.000000,,2013-06-06 17:13:00,
2013-06-06 11:23:00,76.0,40.0,30.13,SSE,159,7.0,14.0,27,-99.99,,,-99.99,790.080017,,2013-06-06 17:23:00,
2013-06-06 11:33:00,76.0,40.0,30.13,SSE,159,7.0,14.0,27,-99.99,,,-99.99,790.080017,,2013-06-06 17:33:00,
2013-06-06 11:43:00,78.0,40.0,30.13,SSE,164,7.0,17.0,26,-99.99,,,-99.99,820.059998,,2013-06-06 17:43:00,
2013-06-06 11:53:00,78.0,40.0,30.13,SE,146,10.0,18.0,26,-99.99,,,-99.99,847.960022,,2013-06-06 17:53:00,
2013-06-06 12:03:00,78.0,40.0,30.13,SE,146,10.0,18.0,26,-99.99,,,-99.99,847.960022,,2013-06-06 18:03:00,
2013-06-06 12:13:00,78.0,40.0,30.13,SE,146,10.0,21.0,26,-99.99,,,-99.99,871.669983,,2013-06-06 18:13:00,
2013-06-06 12:23:00,78.0,41.0,30.13,SSE,154,8.0,17.0,26,-99.99,,,-99.99,891.890015,,2013-06-06 18:23:00,
2013-06-06 12:33:00,78.0,41.0,30.13,SSE,154,8.0,17.0,26,-99.99,,,-99.99,891.890015,,2013-06-06 18:33:00,
2013-06-06 12:43:00,79.0,40.0,30.12,SE,136,8.0,18.0,25,-99.99,,,-99.99,909.320007,,2013-06-06 18:43:00,
2013-06-06 12:53:00,80.0,41.0,30.12,SE,133,8.0,19.0,24,-99.99,,,-99.99,923.270020,,2013-06-06 18:53:00,
2013-06-06 13:03:00,80.0,41.0,30.12,SE,133,8.0,19.0,24,-99.99,,,-99.99,923.270020,,2013-06-06 19:03:00,
2013-06-06 13:13:00,81.0,41.0,30.12,SE,133,8.0,16.0,24,-99.99,,,-99.99,888.400024,,2013-06-06 19:13:00,
2013-06-06 13:23:00,80.0,41.0,30.11,SE,136,11.0,26.0,25,-99.99,,,-99.99,921.869995,,2013-06-06 19:23:00,
2013-06-06 13:33:00,80.0,41.0,30.11,SE,136,11.0,26.0,25,-99.99,,,-99.99,921.869995,,2013-06-06 19:33:00,
2013-06-06 13:43:00,81.0,41.0,30.11,SE,139,10.0,21.0,24,-99.99,,,-99.99,936.520020,,2013-06-06 19:43:00,
2013-06-06 13:53:00,81.0,41.0,30.10,SSE,162,6.0,18.0,23,-99.99,,,-99.99,932.330017,,2013-06-06 19:53:00,
2013-06-06 14:03:00,81.0,41.0,30.10,SSE,162,6.0,18.0,23,-99.99,,,-99.99,932.330017,,2013-06-06 20:03:00,
2013-06-06 14:13:00,82.0,41.0,30.10,SSE,151,8.0,21.0,22,-99.99,,,-99.99,926.760010,,2013-06-06 20:13:00,
2013-06-06 14:23:00,82.0,41.0,30.10,SSE,152,10.0,20.0,22,-99.99,,,-99.99,918.390015,,2013-06-06 20:23:00,
2013-06-06 14:33:00,82.0,41.0,30.10,SSE,152,10.0,20.0,22,-99.99,,,-99.99,918.390015,,2013-06-06 20:33:00,
2013-06-06 14:42:00,83.0,40.0,30.09,SSE,148,11.0,20.0,21,-99.99,,,-99.99,907.229980,,2013-06-06 20:42:00,
2013-06-06 14:53:00,83.0,40.0,30.09,SSE,148,11.0,20.0,21,-99.99,,,-99.99,907.229980,,2013-06-06 20:53:00,
2013-06-06 15:03:00,83.0,40.0,30.09,SSE,148,11.0,20.0,21,-99.99,,,-99.99,907.229980,,2013-06-06 21:03:00,
2013-06-06 15:13:00,83.0,40.0,30.08,SSE,163,9.0,20.0,21,-99.99,,,-99.99,873.760010,,2013-06-06 21:13:00,
2013-06-06 15:23:00,84.0,40.0,30.08,SSE,148,11.0,22.0,21,-99.99,,,-99.99,852.840027,,2013-06-06 21:23:00,
2013-06-06 15:33:00,84.0,40.0,30.08,SSE,148,11.0,22.0,21,-99.99,,,-99.99,852.840027,,2013-06-06 21:33:00,
2013-06-06 15:43:00,84.0,40.0,30.07,SSE,147,9.0,17.0,20,-99.99,,,-99.99,827.729980,,2013-06-06 21:43:00,
2013-06-06 15:53:00,84.0,40.0,30.07,SSE,147,9.0,17.0,20,-99.99,,,-99.99,827.729980,,2013-06-06 21:53:00,
2013-06-06 16:03:00,84.0,40.0,30.07,SSE,147,9.0,17.0,20,-99.99,,,-99.99,827.729980,,2013-06-06 22:03:00,
2013-06-06 16:13:00,85.0,39.0,30.06,SSE,148,10.0,23.0,19,-99.99,,,-99.99,762.880005,,2013-06-06 22:13:00,
2013-06-06 16:23:00,85.0,39.0,30.05,SSE,151,8.0,16.0,19,-99.99,,,-99.99,730.809998,,2013-06-06 22:23:00,
2013-06-06 16:33:00,85.0,39.0,30.05,SSE,151,8.0,16.0,19,-99.99,,,-99.99,730.809998,,2013-06-06 22:33:00,
2013-06-06 16:43:00,85.0,38.0,30.05,SSE,153,9.0,20.0,18,-99.99,,,-99.99,691.059998,,2013-06-06 22:43:00,
2013-06-06 16:53:00,86.0,38.0,30.04,SSE,161,11.0,22.0,18,-99.99,,,-99.99,652.700012,,2013-06-06 22:53:00,
2013-06-06 17:02:00,86.0,38.0,30.04,SSE,161,11.0,22.0,18,-99.99,,,-99.99,652.700012,,2013-06-06 23:02:00,
2013-06-06 17:12:00,86.0,37.0,30.03,SSE,156,10.0,19.0,17,-99.99,,,-99.99,616.440002,,2013-06-06 23:12:00,
2013-06-06 17:22:00,86.0,35.0,30.03,SSE,158,9.0,19.0,16,-99.99,,,-99.99,571.119995,,2013-06-06 23:22:00,
2013-06-06 17:33:00,86.0,35.0,30.03,SSE,158,9.0,19.0,16,-99.99,,,-99.99,571.119995,,2013-06-06 23:33:00,
2013-06-06 17:43:00,87.0,34.0,30.02,South,170,9.0,19.0,15,-99.99,,,-99.99,527.179993,,2013-06-06 23:43:00,
2013-06-06 17:52:00,87.0,34.0,30.02,South,170,9.0,19.0,15,-99.99,,,-99.99,527.179993,,2013-06-06 23:52:00,
2013-06-06 18:02:00,87.0,34.0,30.02,South,170,9.0,19.0,15,-99.99,,,-99.99,527.179993,,2013-06-07 00:02:00,
2013-06-06 18:12:00,87.0,32.0,30.01,SE,146,11.0,17.0,13,-99.99,,,-99.99,442.109985,,2013-06-07 00:12:00,
2013-06-06 18:22:00,87.0,32.0,30.01,South,169,9.0,19.0,13,-99.99,,,-99.99,383.529999,,2013-06-07 00:22:00,
2013-06-06 18:32:00,87.0,32.0,30.01,South,169,9.0,19.0,13,-99.99,,,-99.99,383.529999,,2013-06-07 00:32:00,
2013-06-06 18:42:00,87.0,32.0,30.01,South,169,9.0,19.0,13,-99.99,,,-99.99,383.529999,,2013-06-07 00:42:00,
2013-06-06 18:52:00,86.0,31.0,30.01,SSE,157,12.0,19.0,13,-99.99,,,-99.99,174.330002,,2013-06-07 00:52:00,
2013-06-06 19:02:00,86.0,31.0,30.01,SSE,157,12.0,19.0,13,-99.99,,,-99.99,174.330002,,2013-06-07 01:02:00,
2013-06-06 19:12:00,85.0,31.0,30.02,SSE,153,11.0,17.0,14,-99.99,,,-99.99,62.060001,,2013-06-07 01:12:00,
2013-06-06 19:22:00,85.0,32.0,30.02,SE,136,11.0,16.0,14,-99.99,,,-99.99,64.150002,,2013-06-07 01:22:00,
2013-06-06 19:32:00,84.0,34.0,30.04,ENE,70,14.0,36.0,16,-99.99,,,-99.99,23.010000,,2013-06-07 01:32:00,
2013-06-06 19:42:00,84.0,34.0,-100.00,ENE,70,14.0,36.0,16,-99.99,,,-99.99,23.010000,,2013-06-07 01:42:00,
2013-06-06 19:52:00,73.0,46.0,30.06,North,9,25.0,43.0,38,-99.99,,,-99.99,14.640000,,2013-06-07 01:52:00,
2013-06-06 20:02:00,73.0,46.0,30.06,North,9,25.0,43.0,38,-99.99,,,-99.99,14.640000,,2013-06-07 02:02:00,
2013-06-06 20:12:00,68.0,51.0,30.08,NE,56,14.0,30.0,54,-99.99,,,-99.99,34.169998,,2013-06-07 02:12:00,
2013-06-06 20:22:00,69.0,50.0,30.09,NE,45,14.0,30.0,50,-99.99,,,-99.99,39.750000,,2013-06-07 02:22:00,
2013-06-06 20:32:00,70.0,47.0,30.11,ENE,60,18.0,31.0,44,-99.99,,,-99.99,20.219999,,2013-06-07 02:32:00,
2013-06-06 20:52:00,70.0,46.0,30.10,ENE,75,13.0,23.0,42,-99.99,,,-99.99,0.700000,,2013-06-07 02:52:00,
2013-06-06 21:02:00,70.0,46.0,30.10,ENE,75,13.0,23.0,42,-99.99,,,-99.99,0.700000,,2013-06-07 03:02:00,
2013-06-06 21:12:00,69.0,47.0,30.11,ESE,102,9.0,18.0,45,-99.99,,,-99.99,0.000000,,2013-06-07 03:12:00,
2013-06-06 21:22:00,69.0,46.0,30.11,East,90,4.0,11.0,44,-99.99,,,-99.99,0.000000,,2013-06-07 03:22:00,
2013-06-06 21:33:00,69.0,48.0,30.11,West,270,4.0,8.0,46,-99.99,,,-99.99,0.000000,,2013-06-07 03:33:00,
2013-06-06 21:43:00,69.0,48.0,-100.00,West,270,4.0,8.0,46,-99.99,,,-99.99,0.000000,,2013-06-07 03:43:00,
2013-06-06 21:53:00,69.0,48.0,-100.00,West,270,4.0,8.0,46,-99.99,,,-99.99,0.000000,,2013-06-07 03:53:00,
2013-06-06 22:03:00,69.0,48.0,-100.00,West,270,4.0,8.0,46,-99.99,,,-99.99,0.000000,,2013-06-07 04:03:00,
2013-06-06 22:12:00,70.0,46.0,30.10,NW,311,7.0,11.0,42,-99.99,,,-99.99,0.000000,,2013-06-07 04:12:00,
2013-06-06 22:23:00,70.0,45.0,30.11,WNW,302,7.0,9.0,40,-99.99,,,-99.99,0.000000,,2013-06-07 04:23:00,
2013-06-06 22:33:00,71.0,43.0,30.11,NNW,347,4.0,11.0,35,-99.99,,,-99.99,0.000000,,2013-06-07 04:33:00,
2013-06-06 22:42:00,71.0,43.0,-100.00,NNW,347,4.0,11.0,35,-99.99,,,-99.99,0.000000,,2013-06-07 04:42:00,
2013-06-06 22:53:00,71.0,43.0,-100.00,NNW,347,4.0,11.0,35,-99.99,,,-99.99,0.000000,,2013-06-07 04:53:00,
2013-06-06 23:03:00,71.0,43.0,-100.00,NNW,347,4.0,11.0,35,-99.99,,,-99.99,0.000000,,2013-06-07 05:03:00,
2013-06-06 23:12:00,73.0,43.0,30.14,NE,40,4.0,8.0,34,-99.99,,,-99.99,0.000000,,2013-06-07 05:12:00,
2013-06-06 23:22:00,73.0,43.0,30.14,NE,40,4.0,8.0,34,-99.99,,,-99.99,0.000000,,2013-06-07 05:22:00,
2013-06-06 23:32:00,72.0,42.0,30.11,WSW,251,4.0,8.0,34,-99.99,,,-99.99,0.000000,,2013-06-07 05:32:00,
2013-06-06 23:42:00,72.0,42.0,30.11,WSW,251,4.0,8.0,34,-99.99,,,-99.99,0.000000,,2013-06-07 05:42:00,
2013-06-06 23:52:00,72.0,42.0,30.11,WSW,251,4.0,8.0,34,-99.99,,,-99.99,0.000000,,2013-06-07 05:52:00,